createdAt,value
2023-01-26T00:00:54.338Z,18.63
2023-01-26T00:02:58.298Z,16.63
2023-01-26T00:05:01.323Z,19.30
2023-01-26T00:07:04.000Z,16.90
2023-01-26T00:09:06.695Z,17.07
2023-01-26T00:11:10.227Z,19.30
2023-01-26T00:13:13.273Z,17.23
2023-01-26T00:15:15.968Z,17.13
2023-01-26T00:17:26.021Z,18.63
2023-01-26T00:19:30.216Z,17.43
2023-01-26T00:21:33.356Z,18.67
2023-01-26T00:23:36.282Z,16.53
2023-01-26T00:25:40.933Z,16.80
2023-01-26T00:27:43.617Z,18.90
2023-01-26T00:29:46.772Z,17.50
2023-01-26T00:31:49.452Z,17.67
2023-01-26T00:33:52.265Z,16.73
2023-01-26T00:35:56.640Z,17.90
2023-01-26T00:37:59.706Z,18.30
2023-01-26T00:40:02.377Z,16.30
2023-01-26T00:42:09.715Z,18.60
2023-01-26T00:44:12.402Z,17.03
2023-01-26T00:46:15.631Z,18.60
2023-01-26T00:48:18.314Z,17.40
2023-01-26T00:50:21.022Z,18.37
2023-01-26T00:52:24.986Z,17.67
2023-01-26T00:54:28.147Z,18.97
2023-01-26T00:56:30.847Z,17.10
2023-01-26T00:58:33.490Z,17.57
2023-01-26T01:00:38.690Z,17.70
2023-01-26T01:02:41.877Z,17.30
2023-01-26T01:04:44.551Z,17.73
2023-01-26T01:06:47.293Z,17.33
2023-01-26T01:08:51.311Z,17.30
2023-01-26T01:11:04.131Z,16.27
2023-01-26T01:13:06.815Z,17.10
2023-01-26T01:15:09.949Z,16.93
2023-01-26T01:17:12.627Z,18.37
2023-01-26T01:19:16.570Z,18.60
2023-01-26T01:21:20.004Z,16.33
2023-01-26T01:23:22.687Z,19.23
2023-01-26T01:25:26.683Z,19.23
2023-01-26T01:27:29.779Z,19.10
2023-01-26T01:29:32.431Z,17.00
2023-01-26T01:31:35.244Z,18.67
2023-01-26T01:33:37.965Z,18.07
2023-01-26T01:35:41.110Z,18.30
2023-01-26T01:37:43.767Z,17.83
2023-01-26T01:39:46.460Z,18.10
2023-01-26T01:41:50.401Z,18.27
2023-01-26T01:44:12.959Z,17.67
2023-01-26T01:46:18.635Z,17.07
2023-01-26T01:48:24.627Z,15.00
2023-01-26T01:50:27.749Z,18.50
2023-01-26T01:52:31.448Z,18.07
2023-01-26T01:54:35.535Z,16.87
2023-01-26T01:56:38.656Z,17.07
2023-01-26T01:58:43.120Z,18.90
2023-01-26T02:00:45.814Z,15.87
2023-01-26T02:03:10.962Z,18.00
2023-01-26T02:05:15.159Z,17.90
2023-01-26T02:07:18.193Z,17.97
2023-01-26T02:09:34.507Z,15.47
2023-01-26T02:11:39.113Z,16.87
2023-01-26T02:13:43.793Z,16.77
2023-01-26T02:15:46.929Z,19.73
2023-01-26T02:17:49.600Z,18.30
2023-01-26T02:19:58.928Z,18.13
2023-01-26T02:22:02.601Z,17.30
2023-01-26T02:24:10.440Z,16.43
2023-01-26T02:26:15.356Z,16.03
2023-01-26T02:28:18.089Z,16.30
2023-01-26T02:30:20.885Z,17.50
2023-01-26T02:32:23.959Z,15.60
2023-01-26T02:34:28.894Z,18.10
2023-01-26T02:36:32.451Z,17.97
2023-01-26T02:38:40.308Z,16.20
2023-01-26T02:40:45.875Z,16.97
2023-01-26T02:42:49.003Z,15.43
2023-01-26T02:44:51.803Z,16.13
2023-01-26T02:46:54.720Z,15.03
2023-01-26T02:49:08.779Z,16.20
2023-01-26T02:51:11.622Z,16.50
2023-01-26T02:53:14.319Z,17.27
2023-01-26T02:55:23.658Z,14.83
2023-01-26T02:57:27.153Z,15.97
2023-01-26T02:59:31.169Z,15.37
2023-01-26T03:01:33.858Z,15.17
2023-01-26T03:03:42.827Z,15.67
2023-01-26T03:05:46.366Z,16.27
2023-01-26T03:07:49.028Z,15.50
2023-01-26T03:09:51.757Z,15.50
2023-01-26T03:11:54.889Z,17.17
2023-01-26T03:13:57.543Z,15.70
2023-01-26T03:16:06.775Z,14.87
2023-01-26T03:18:25.178Z,16.40
2023-01-26T03:20:38.825Z,14.63
2023-01-26T03:22:55.436Z,16.53
2023-01-26T03:25:09.496Z,15.50
2023-01-26T03:27:23.214Z,15.80
2023-01-26T03:29:26.617Z,15.73
2023-01-26T03:31:30.633Z,13.90
2023-01-26T03:33:33.822Z,14.77
2023-01-26T03:35:36.517Z,14.77
2023-01-26T03:37:43.539Z,17.47
2023-01-26T03:39:57.624Z,14.77
2023-01-26T03:42:11.292Z,15.23
2023-01-26T03:44:25.036Z,14.27
2023-01-26T03:46:39.207Z,14.27
2023-01-26T03:48:54.169Z,13.40
2023-01-26T03:51:07.964Z,13.60
2023-01-26T03:53:26.316Z,15.73
2023-01-26T03:55:39.939Z,13.20
2023-01-26T03:57:42.677Z,13.33
2023-01-26T03:59:45.577Z,14.60
2023-01-26T04:01:59.850Z,13.47
2023-01-26T04:04:14.840Z,13.33
2023-01-26T04:06:28.507Z,13.63
2023-01-26T04:08:31.254Z,13.10
2023-01-26T04:10:34.256Z,13.10
2023-01-26T04:12:37.161Z,13.93
2023-01-26T04:14:50.997Z,13.77
2023-01-26T04:17:04.978Z,13.37
2023-01-26T04:19:19.916Z,13.00
2023-01-26T04:21:29.355Z,14.47
2023-01-26T04:23:32.054Z,12.90
2023-01-26T04:25:35.181Z,12.63
2023-01-26T04:27:37.874Z,12.33
2023-01-26T04:29:40.591Z,12.40
2023-01-26T04:31:43.517Z,13.20
2023-01-26T04:33:46.531Z,13.07
2023-01-26T04:35:50.521Z,12.83
2023-01-26T04:37:53.176Z,14.33
2023-01-26T04:39:55.845Z,13.00
2023-01-26T04:41:58.955Z,14.27
2023-01-26T04:44:01.629Z,13.90
2023-01-26T04:46:05.723Z,13.10
2023-01-26T04:48:08.395Z,13.30
2023-01-26T04:50:12.284Z,13.20
2023-01-26T04:52:16.440Z,13.13
2023-01-26T04:54:19.164Z,13.40
2023-01-26T04:56:23.976Z,13.47
2023-01-26T04:58:28.081Z,13.03
2023-01-26T05:00:30.807Z,12.67
2023-01-26T05:02:33.544Z,12.23
2023-01-26T05:04:36.442Z,12.73
2023-01-26T05:06:42.019Z,12.90
2023-01-26T05:08:46.020Z,12.03
2023-01-26T05:10:48.907Z,12.80
2023-01-26T05:12:51.617Z,10.80
2023-01-26T05:14:54.641Z,10.33
2023-01-26T05:16:57.501Z,11.30
2023-01-26T05:19:00.164Z,11.60
2023-01-26T05:21:02.857Z,11.23
2023-01-26T05:23:05.972Z,11.33
2023-01-26T05:25:10.485Z,10.90
2023-01-26T05:27:22.248Z,10.33
2023-01-26T05:29:24.938Z,10.97
2023-01-26T05:31:27.944Z,10.80
2023-01-26T05:33:30.703Z,10.20
2023-01-26T05:35:33.455Z,10.17
2023-01-26T05:37:36.326Z,9.33
2023-01-26T05:39:39.432Z,9.60
2023-01-26T05:41:43.399Z,10.10
2023-01-26T05:43:46.098Z,9.60
2023-01-26T05:45:48.870Z,9.57
2023-01-26T05:47:52.024Z,10.57
2023-01-26T05:49:54.774Z,9.40
2023-01-26T05:51:57.561Z,9.27
2023-01-26T05:54:00.255Z,8.60
2023-01-26T05:56:03.315Z,10.33
2023-01-26T05:58:07.299Z,9.23
2023-01-26T06:00:11.171Z,7.93
2023-01-26T06:02:14.124Z,8.50
2023-01-26T06:04:17.421Z,8.30
2023-01-26T06:06:20.154Z,8.23
2023-01-26T06:08:22.948Z,8.93
2023-01-26T06:10:26.359Z,7.63
2023-01-26T06:12:31.599Z,7.70
2023-01-26T06:14:35.569Z,8.03
2023-01-26T06:16:38.312Z,8.27
2023-01-26T06:18:40.999Z,7.90
2023-01-26T06:20:44.530Z,8.00
2023-01-26T06:22:47.233Z,8.07
2023-01-26T06:24:49.939Z,7.73
2023-01-26T06:26:52.693Z,7.00
2023-01-26T06:28:56.292Z,6.40
2023-01-26T06:31:03.604Z,7.50
2023-01-26T06:33:06.872Z,7.33
2023-01-26T06:35:10.202Z,7.30
2023-01-26T06:37:15.671Z,7.33
2023-01-26T06:39:18.332Z,7.00
2023-01-26T06:41:21.031Z,6.27
2023-01-26T06:43:24.201Z,6.77
2023-01-26T06:45:26.872Z,6.93
2023-01-26T06:47:30.860Z,6.60
2023-01-26T06:49:34.228Z,6.50
2023-01-26T06:51:44.734Z,6.27
2023-01-26T06:53:50.414Z,6.30
2023-01-26T06:55:53.132Z,6.90
2023-01-26T06:57:56.267Z,6.50
2023-01-26T06:59:58.975Z,6.00
2023-01-26T07:02:01.673Z,5.80
2023-01-26T07:04:05.627Z,6.80
2023-01-26T07:06:12.204Z,5.33
2023-01-26T07:08:14.871Z,6.07
2023-01-26T07:10:17.617Z,6.40
2023-01-26T07:12:20.340Z,5.90
2023-01-26T07:14:23.365Z,5.60
2023-01-26T07:16:26.158Z,6.63
2023-01-26T07:18:28.981Z,6.80
2023-01-26T07:20:32.934Z,6.83
2023-01-26T07:22:35.896Z,6.53
2023-01-26T07:24:38.589Z,6.37
2023-01-26T07:26:41.257Z,6.73
2023-01-26T07:28:43.977Z,7.63
2023-01-26T07:30:47.030Z,7.80
2023-01-26T07:32:49.681Z,6.60
2023-01-26T07:34:52.419Z,7.57
2023-01-26T07:36:56.390Z,7.20
2023-01-26T07:38:59.421Z,5.87
2023-01-26T07:41:06.479Z,6.60
2023-01-26T07:43:09.274Z,6.53
2023-01-26T07:45:12.399Z,6.70
2023-01-26T07:47:15.732Z,6.73
2023-01-26T07:49:18.452Z,8.87
2023-01-26T07:51:21.608Z,9.50
2023-01-26T07:53:27.865Z,11.47
2023-01-26T07:55:32.524Z,9.30
2023-01-26T07:57:35.197Z,9.73
2023-01-26T07:59:37.949Z,10.67
2023-01-26T08:01:40.679Z,10.63
2023-01-26T08:03:45.432Z,10.37
2023-01-26T08:05:48.153Z,11.30
2023-01-26T08:07:51.364Z,11.80
2023-01-26T08:09:55.318Z,11.53
2023-01-26T08:11:59.141Z,12.30
2023-01-26T08:14:01.856Z,11.30
2023-01-26T08:16:05.683Z,11.43
2023-01-26T08:18:08.416Z,11.97
2023-01-26T08:20:14.218Z,11.37
2023-01-26T08:22:17.167Z,15.33
2023-01-26T08:24:20.244Z,12.37
2023-01-26T08:26:24.616Z,14.20
2023-01-26T08:28:27.727Z,13.80
2023-01-26T08:30:30.384Z,16.17
2023-01-26T08:32:33.179Z,13.70
2023-01-26T08:34:36.226Z,15.27
2023-01-26T08:36:40.050Z,14.80
2023-01-26T08:38:42.898Z,12.63
2023-01-26T08:40:45.552Z,11.50
2023-01-26T08:42:49.639Z,18.00
2023-01-26T08:44:53.463Z,11.57
2023-01-26T08:46:56.142Z,12.43
2023-01-26T08:49:00.508Z,10.90
2023-01-26T08:51:04.143Z,12.77
2023-01-26T08:53:07.577Z,11.83
2023-01-26T08:55:10.910Z,11.67
2023-01-26T08:57:13.662Z,12.73
2023-01-26T08:59:17.644Z,10.87
2023-01-26T09:01:20.792Z,11.70
2023-01-26T09:03:23.519Z,10.93
2023-01-26T09:05:26.228Z,13.50
2023-01-26T09:07:29.337Z,10.97
2023-01-26T09:09:32.670Z,10.33
2023-01-26T09:11:35.345Z,14.93
2023-01-26T09:13:39.026Z,11.20
2023-01-26T09:15:43.053Z,10.97
2023-01-26T09:17:46.244Z,11.80
2023-01-26T09:19:48.930Z,10.40
2023-01-26T09:21:53.898Z,12.37
2023-01-26T09:23:57.020Z,11.80
2023-01-26T09:26:00.276Z,10.53
2023-01-26T09:28:05.611Z,9.83
2023-01-26T09:30:09.604Z,9.90
2023-01-26T09:32:14.012Z,10.53
2023-01-26T09:34:17.117Z,11.50
2023-01-26T09:36:19.937Z,9.53
2023-01-26T09:38:28.670Z,9.80
2023-01-26T09:40:37.466Z,9.40
2023-01-26T09:42:43.641Z,9.00
2023-01-26T09:44:49.528Z,8.53
2023-01-26T09:47:00.761Z,9.30
2023-01-26T09:49:07.616Z,8.53
2023-01-26T09:51:11.896Z,9.73
2023-01-26T09:53:16.305Z,9.40
2023-01-26T09:55:21.287Z,9.80
2023-01-26T09:57:26.312Z,15.00
2023-01-26T09:59:36.411Z,9.57
2023-01-26T10:01:41.604Z,12.33
2023-01-26T10:03:46.878Z,9.20
2023-01-26T10:05:53.132Z,10.30
2023-01-26T10:07:55.815Z,13.40
2023-01-26T10:09:58.705Z,8.73
2023-01-26T10:12:02.581Z,9.50
2023-01-26T10:14:08.703Z,9.43
2023-01-26T10:16:11.474Z,16.03
2023-01-26T10:18:17.991Z,11.40
2023-01-26T10:20:26.083Z,11.00
2023-01-26T10:22:33.311Z,11.63
2023-01-26T10:24:36.201Z,10.30
2023-01-26T10:26:40.134Z,12.27
2023-01-26T10:28:43.643Z,11.50
2023-01-26T10:30:47.105Z,10.83
2023-01-26T10:32:52.084Z,12.20
2023-01-26T10:34:54.938Z,12.73
2023-01-26T10:37:03.035Z,12.97
2023-01-26T10:39:07.113Z,12.27
2023-01-26T10:41:23.192Z,13.30
2023-01-26T10:43:26.052Z,11.93
2023-01-26T10:45:31.210Z,14.17
2023-01-26T10:47:37.029Z,15.13
2023-01-26T10:49:39.851Z,15.43
2023-01-26T10:51:44.483Z,24.47
2023-01-26T10:53:47.653Z,16.13
2023-01-26T10:56:03.928Z,16.30
2023-01-26T10:58:06.929Z,16.30
2023-01-26T11:00:23.446Z,13.30
2023-01-26T11:02:28.638Z,13.47
2023-01-26T11:04:31.541Z,16.00
2023-01-26T11:06:35.333Z,30.20
2023-01-26T11:08:40.018Z,15.50
2023-01-26T11:10:51.911Z,17.57
2023-01-26T11:13:10.572Z,16.33
2023-01-26T11:15:17.860Z,18.27
2023-01-26T11:17:23.574Z,16.00
2023-01-26T11:19:36.832Z,14.23
2023-01-26T11:21:41.265Z,14.47
2023-01-26T11:23:50.955Z,16.00
2023-01-26T11:26:06.326Z,12.93
2023-01-26T11:28:20.321Z,15.37
2023-01-26T11:30:44.813Z,13.50
2023-01-26T11:32:51.558Z,13.13
2023-01-26T11:35:01.481Z,14.63
2023-01-26T11:37:16.259Z,13.90
2023-01-26T11:39:25.598Z,14.17
2023-01-26T11:41:35.675Z,16.70
2023-01-26T11:43:53.761Z,16.40
2023-01-26T11:46:05.189Z,12.00
2023-01-26T11:48:14.231Z,13.17
2023-01-26T11:50:22.502Z,13.10
2023-01-26T11:52:28.923Z,11.13
2023-01-26T11:54:41.092Z,13.00
2023-01-26T11:56:47.875Z,14.83
2023-01-26T11:58:54.873Z,15.73
2023-01-26T12:00:57.855Z,15.07
2023-01-26T12:03:01.963Z,13.60
2023-01-26T12:05:08.318Z,13.67
2023-01-26T12:07:14.078Z,14.57
2023-01-26T12:09:18.859Z,15.17
2023-01-26T12:11:25.431Z,16.70
2023-01-26T12:13:36.840Z,17.47
2023-01-26T12:15:42.408Z,19.90
2023-01-26T12:17:48.793Z,18.70
2023-01-26T12:19:54.027Z,18.30
2023-01-26T12:21:59.707Z,17.37
2023-01-26T12:24:03.805Z,18.40
2023-01-26T12:26:08.674Z,17.23
2023-01-26T12:28:16.017Z,18.07
2023-01-26T12:30:32.595Z,19.50
2023-01-26T12:32:36.802Z,18.03
2023-01-26T12:34:43.373Z,20.30
2023-01-26T12:36:49.151Z,20.10
2023-01-26T12:39:00.724Z,18.20
2023-01-26T12:41:07.007Z,20.33
2023-01-26T12:43:17.699Z,17.50
2023-01-26T12:45:22.016Z,19.63
2023-01-26T12:47:28.495Z,17.77
2023-01-26T12:49:33.416Z,19.30
2023-01-26T12:51:38.636Z,20.60
2023-01-26T12:53:47.187Z,16.50
2023-01-26T12:55:51.877Z,17.07
2023-01-26T12:57:56.232Z,19.73
2023-01-26T13:00:05.159Z,16.83
2023-01-26T13:02:12.922Z,14.70
2023-01-26T13:04:16.691Z,17.90
2023-01-26T13:06:22.399Z,15.60
2023-01-26T13:08:41.613Z,16.10
2023-01-26T13:10:46.945Z,14.27
2023-01-26T13:12:50.281Z,17.53
2023-01-26T13:15:01.044Z,14.50
2023-01-26T13:17:30.519Z,16.67
2023-01-26T13:19:36.678Z,19.90
2023-01-26T13:21:45.205Z,15.53
2023-01-26T13:23:48.029Z,17.07
2023-01-26T13:25:56.514Z,16.13
2023-01-26T13:27:59.993Z,17.00
2023-01-26T13:30:03.417Z,17.00
2023-01-26T13:32:29.878Z,16.60
2023-01-26T13:34:35.178Z,15.37
2023-01-26T13:36:41.110Z,15.20
2023-01-26T13:38:46.479Z,15.40
2023-01-26T13:40:50.808Z,16.50
2023-01-26T13:43:01.838Z,16.37
2023-01-26T13:45:07.569Z,17.40
2023-01-26T13:47:11.921Z,19.93
2023-01-26T13:49:27.122Z,17.03
2023-01-26T13:51:30.532Z,13.77
2023-01-26T13:53:37.909Z,15.53
2023-01-26T13:55:44.491Z,14.50
2023-01-26T13:57:49.714Z,15.20
2023-01-26T13:59:56.339Z,14.70
2023-01-26T14:01:59.032Z,14.17
2023-01-26T14:04:15.530Z,14.20
2023-01-26T14:06:19.654Z,12.97
2023-01-26T14:08:23.264Z,12.97
2023-01-26T14:10:27.029Z,13.30
2023-01-26T14:12:32.812Z,11.87
2023-01-26T14:14:37.119Z,10.40
2023-01-26T14:16:39.798Z,11.70
2023-01-26T14:18:42.521Z,12.63
2023-01-26T14:20:45.501Z,10.73
2023-01-26T14:23:03.682Z,11.70
2023-01-26T14:25:10.651Z,12.43
2023-01-26T14:27:34.408Z,11.80
2023-01-26T14:29:39.101Z,10.90
2023-01-26T14:31:41.978Z,11.33
2023-01-26T14:33:44.711Z,11.00
2023-01-26T14:35:56.621Z,10.17
2023-01-26T14:38:07.615Z,9.50
2023-01-26T14:40:12.042Z,11.00
2023-01-26T14:42:15.477Z,9.53
2023-01-26T14:44:19.978Z,10.07
2023-01-26T14:46:25.687Z,9.77
2023-01-26T14:48:30.877Z,10.90
2023-01-26T14:50:34.483Z,8.43
2023-01-26T14:52:38.193Z,9.20
2023-01-26T14:54:40.936Z,9.00
2023-01-26T14:56:43.635Z,10.30
2023-01-26T14:58:46.719Z,8.50
2023-01-26T15:00:50.945Z,7.77
2023-01-26T15:02:54.617Z,9.20
2023-01-26T15:04:59.554Z,7.20
2023-01-26T15:07:23.994Z,9.10
2023-01-26T15:09:28.341Z,7.43
2023-01-26T15:11:47.452Z,7.27
2023-01-26T15:13:53.500Z,8.63
2023-01-26T15:16:08.071Z,6.90
2023-01-26T15:18:27.759Z,7.50
2023-01-26T15:20:39.703Z,6.93
2023-01-26T15:22:42.868Z,7.03
2023-01-26T15:24:46.138Z,6.93
2023-01-26T15:26:49.955Z,7.20
2023-01-26T15:28:52.935Z,6.60
2023-01-26T15:30:56.831Z,6.87
2023-01-26T15:33:01.123Z,6.60
2023-01-26T15:35:06.314Z,6.40
2023-01-26T15:37:29.028Z,7.07
2023-01-26T15:39:31.782Z,6.17
2023-01-26T15:41:46.122Z,5.80
2023-01-26T15:43:49.074Z,6.90
2023-01-26T15:45:55.848Z,8.40
2023-01-26T15:48:01.723Z,6.30
2023-01-26T15:50:04.688Z,6.40
2023-01-26T15:52:12.011Z,6.07
2023-01-26T15:54:15.094Z,5.50
2023-01-26T15:56:17.892Z,5.60
2023-01-26T15:58:20.544Z,5.27
2023-01-26T16:00:23.515Z,5.50
2023-01-26T16:02:26.813Z,4.73
2023-01-26T16:04:31.575Z,5.30
2023-01-26T16:06:34.652Z,5.57
2023-01-26T16:08:38.061Z,4.80
2023-01-26T16:10:41.239Z,5.27
2023-01-26T16:12:43.951Z,5.87
2023-01-26T16:14:46.669Z,4.80
2023-01-26T16:16:49.431Z,5.00
2023-01-26T16:18:52.512Z,4.17
2023-01-26T16:20:56.528Z,4.70
2023-01-26T16:22:59.441Z,4.73
2023-01-26T16:25:02.162Z,5.97
2023-01-26T16:27:05.416Z,4.17
2023-01-26T16:29:08.081Z,4.60
2023-01-26T16:31:14.938Z,4.63
2023-01-26T16:33:20.914Z,5.10
2023-01-26T16:35:24.514Z,4.53
2023-01-26T16:37:28.510Z,4.23
2023-01-26T16:39:31.479Z,4.60
2023-01-26T16:41:34.440Z,4.80
2023-01-26T16:43:37.568Z,4.80
2023-01-26T16:45:40.446Z,4.57
2023-01-26T16:47:43.329Z,3.93
2023-01-26T16:49:46.456Z,4.00
2023-01-26T16:51:49.157Z,3.70
2023-01-26T16:53:53.462Z,4.37
2023-01-26T16:55:56.548Z,4.70
2023-01-26T16:58:02.221Z,4.47
2023-01-26T17:00:05.369Z,3.97
2023-01-26T17:02:24.271Z,4.10
2023-01-26T17:04:27.077Z,3.87
2023-01-26T17:06:30.635Z,4.17
2023-01-26T17:08:33.556Z,3.97
2023-01-26T17:10:40.064Z,4.10
2023-01-26T17:12:47.298Z,3.73
2023-01-26T17:14:50.077Z,3.80
2023-01-26T17:16:53.157Z,3.47
2023-01-26T17:18:56.337Z,4.20
2023-01-26T17:21:03.237Z,3.93
2023-01-26T17:23:05.996Z,4.30
2023-01-26T17:25:10.536Z,4.00
2023-01-26T17:27:16.102Z,3.73
2023-01-26T17:29:18.783Z,4.27
2023-01-26T17:31:22.634Z,3.73
2023-01-26T17:33:25.624Z,4.10
2023-01-26T17:35:28.886Z,4.30
2023-01-26T17:37:31.755Z,3.77
2023-01-26T17:39:35.519Z,4.57
2023-01-26T17:41:38.629Z,4.43
2023-01-26T17:43:43.905Z,3.97
2023-01-26T17:45:46.672Z,3.63
2023-01-26T17:47:49.959Z,5.40
2023-01-26T17:49:52.836Z,4.10
2023-01-26T17:51:55.742Z,4.53
2023-01-26T17:53:58.788Z,4.00
2023-01-26T17:56:02.240Z,5.47
2023-01-26T17:58:10.629Z,5.03
2023-01-26T18:00:15.997Z,5.10
2023-01-26T18:02:19.019Z,4.50
2023-01-26T18:04:22.113Z,4.97
2023-01-26T18:06:24.840Z,4.30
2023-01-26T18:08:27.801Z,3.93
2023-01-26T18:10:30.864Z,4.60
2023-01-26T18:12:34.345Z,3.50
2023-01-26T18:14:37.171Z,4.40
2023-01-26T18:16:41.268Z,4.03
2023-01-26T18:18:44.381Z,4.30
2023-01-26T18:20:47.220Z,3.80
2023-01-26T18:22:50.206Z,4.23
2023-01-26T18:24:52.919Z,4.17
2023-01-26T18:26:56.046Z,3.60
2023-01-26T18:28:58.708Z,4.50
2023-01-26T18:31:09.429Z,3.97
2023-01-26T18:33:13.939Z,3.40
2023-01-26T18:35:16.772Z,4.07
2023-01-26T18:37:19.489Z,4.60
2023-01-26T18:39:22.157Z,3.73
2023-01-26T18:41:25.358Z,4.20
2023-01-26T18:43:32.623Z,3.53
2023-01-26T18:45:35.630Z,4.57
2023-01-26T18:47:38.554Z,4.67
2023-01-26T18:49:42.581Z,4.33
2023-01-26T18:51:48.068Z,4.00
2023-01-26T18:53:50.885Z,4.27
2023-01-26T18:55:59.945Z,4.87
2023-01-26T18:58:02.619Z,4.40
2023-01-26T19:00:06.718Z,5.20
2023-01-26T19:02:09.502Z,4.67
2023-01-26T19:04:17.929Z,4.20
2023-01-26T19:06:22.549Z,5.60
2023-01-26T19:08:25.424Z,4.60
2023-01-26T19:10:28.109Z,4.40
2023-01-26T19:12:31.643Z,4.20
2023-01-26T19:14:35.134Z,4.20
2023-01-26T19:16:38.081Z,4.93
2023-01-26T19:18:41.308Z,3.90
2023-01-26T19:20:43.989Z,4.30
2023-01-26T19:22:54.951Z,4.77
2023-01-26T19:25:00.677Z,4.63
2023-01-26T19:27:05.995Z,4.20
2023-01-26T19:29:08.895Z,3.80
2023-01-26T19:31:11.843Z,4.63
2023-01-26T19:33:25.174Z,4.20
2023-01-26T19:35:30.383Z,4.40
2023-01-26T19:37:33.192Z,4.00
2023-01-26T19:39:37.540Z,4.10
2023-01-26T19:41:46.332Z,4.07
2023-01-26T19:43:50.232Z,4.20
2023-01-26T19:45:53.985Z,4.70
2023-01-26T19:47:57.466Z,4.70
2023-01-26T19:50:00.654Z,3.57
2023-01-26T19:52:03.402Z,4.20
2023-01-26T19:54:06.389Z,4.33
2023-01-26T19:56:11.445Z,4.33
2023-01-26T19:58:16.553Z,4.53
2023-01-26T20:00:20.247Z,4.23
2023-01-26T20:02:24.118Z,4.13
2023-01-26T20:04:27.369Z,4.47
2023-01-26T20:06:34.279Z,4.30
2023-01-26T20:08:37.100Z,4.80
2023-01-26T20:10:40.209Z,4.70
2023-01-26T20:12:44.191Z,4.47
2023-01-26T20:14:47.117Z,3.93
2023-01-26T20:16:50.159Z,4.00
2023-01-26T20:18:52.901Z,4.57
2023-01-26T20:21:00.363Z,4.00
2023-01-26T20:23:04.096Z,4.20
2023-01-26T20:25:07.506Z,4.70
2023-01-26T20:27:10.483Z,3.97
2023-01-26T20:29:15.080Z,4.10
2023-01-26T20:31:19.231Z,5.20
2023-01-26T20:33:21.959Z,4.43
2023-01-26T20:35:24.671Z,4.17
2023-01-26T20:37:27.435Z,4.77
2023-01-26T20:39:30.678Z,4.30
2023-01-26T20:41:33.663Z,4.60
2023-01-26T20:43:39.256Z,4.30
2023-01-26T20:45:43.838Z,3.53
2023-01-26T20:47:46.572Z,4.07
2023-01-26T20:49:49.684Z,4.00
2023-01-26T20:51:52.831Z,4.53
2023-01-26T20:53:55.548Z,3.70
2023-01-26T20:55:58.794Z,4.00
2023-01-26T20:58:01.598Z,4.07
2023-01-26T21:00:05.167Z,4.87
2023-01-26T21:02:11.924Z,4.00
2023-01-26T21:04:14.722Z,5.30
2023-01-26T21:06:18.961Z,4.70
2023-01-26T21:08:22.122Z,3.93
2023-01-26T21:10:26.488Z,3.70
2023-01-26T21:12:29.741Z,4.03
2023-01-26T21:14:32.614Z,5.00
2023-01-26T21:16:36.061Z,4.60
2023-01-26T21:18:40.171Z,3.80
2023-01-26T21:20:42.866Z,3.97
2023-01-26T21:22:45.555Z,4.93
2023-01-26T21:24:48.596Z,3.87
2023-01-26T21:26:52.101Z,4.30
2023-01-26T21:28:56.092Z,3.87
2023-01-26T21:31:01.667Z,3.80
2023-01-26T21:33:04.770Z,4.30
2023-01-26T21:35:09.605Z,3.87
2023-01-26T21:37:12.362Z,3.90
2023-01-26T21:39:15.454Z,4.10
2023-01-26T21:41:30.528Z,3.57
2023-01-26T21:43:33.260Z,3.13
2023-01-26T21:45:46.966Z,3.80
2023-01-26T21:48:10.410Z,3.50
2023-01-26T21:50:34.407Z,4.00
2023-01-26T21:52:48.492Z,3.37
2023-01-26T21:54:56.144Z,4.17
2023-01-26T21:57:04.969Z,4.80
2023-01-26T21:59:10.672Z,3.30
2023-01-26T22:01:20.025Z,3.83
2023-01-26T22:03:24.166Z,3.63
2023-01-26T22:05:32.100Z,4.20
2023-01-26T22:07:34.849Z,3.60
2023-01-26T22:09:41.502Z,3.87
2023-01-26T22:11:44.346Z,3.83
2023-01-26T22:13:47.559Z,3.87
2023-01-26T22:15:50.435Z,4.13
2023-01-26T22:17:53.796Z,3.43
2023-01-26T22:19:56.770Z,4.27
2023-01-26T22:22:02.259Z,3.43
2023-01-26T22:24:06.694Z,4.23
2023-01-26T22:26:11.561Z,3.20
2023-01-26T22:28:14.273Z,3.93
2023-01-26T22:30:17.547Z,3.57
2023-01-26T22:32:21.254Z,3.40
2023-01-26T22:34:25.022Z,3.73
2023-01-26T22:36:28.347Z,3.67
2023-01-26T22:38:32.516Z,4.07
2023-01-26T22:40:35.214Z,4.10
2023-01-26T22:42:38.637Z,4.00
2023-01-26T22:44:41.461Z,4.07
2023-01-26T22:46:44.146Z,4.13
2023-01-26T22:48:46.881Z,4.40
2023-01-26T22:50:49.560Z,3.13
2023-01-26T22:52:52.215Z,3.43
2023-01-26T22:54:56.240Z,4.00
2023-01-26T22:56:59.272Z,3.33
2023-01-26T22:59:02.030Z,3.70
2023-01-26T23:01:06.478Z,3.37
2023-01-26T23:03:09.163Z,3.70
2023-01-26T23:05:12.278Z,4.00
2023-01-26T23:07:14.951Z,3.43
2023-01-26T23:09:17.649Z,4.00
2023-01-26T23:11:22.811Z,3.93
2023-01-26T23:13:26.011Z,3.67
2023-01-26T23:15:28.729Z,3.70
2023-01-26T23:17:31.406Z,3.23
2023-01-26T23:19:34.124Z,3.40
2023-01-26T23:21:37.276Z,3.70
2023-01-26T23:23:40.179Z,3.30
2023-01-26T23:25:51.878Z,3.23
2023-01-26T23:27:55.907Z,3.97
2023-01-26T23:30:00.267Z,3.07
2023-01-26T23:32:04.815Z,3.80
2023-01-26T23:34:07.568Z,4.13
2023-01-26T23:36:11.425Z,3.23
2023-01-26T23:38:14.600Z,4.00
2023-01-26T23:40:19.650Z,3.77
2023-01-26T23:42:22.339Z,3.73
2023-01-26T23:44:26.779Z,3.57
2023-01-26T23:46:29.743Z,4.33
2023-01-26T23:48:32.574Z,3.20
2023-01-26T23:50:35.817Z,3.80
2023-01-26T23:52:38.529Z,3.40
2023-01-26T23:54:41.196Z,3.53
2023-01-26T23:56:43.857Z,3.23
2023-01-26T23:58:46.895Z,3.77
